Air Navigation Services of Czech Republic
Airport: LKPD Updated:  21.07.2024 00:59:38  UTC
 METAR LKPD 21.07. 01:00 ...
METAR LKPD 210100Z 00000KT CAVOK 15/13 Q1011 RMK BLU=
 TAF LKPD 20.07. 23:00 ...
TAF LKPD 202300Z 2100/2200 VRB02KT CAVOK      TEMPO 2110/2118 06007KT      BECMG 2118/2120 26010KT=